createdAt,value
2018-03-09T00:00:28.498Z,6.27
2018-03-09T00:01:28.479Z,6.28
2018-03-09T00:02:28.732Z,6.22
2018-03-09T00:03:28.456Z,6.17
2018-03-09T00:04:28.705Z,6.06
2018-03-09T00:05:28.693Z,6.08
2018-03-09T00:06:28.434Z,6.14
2018-03-09T00:07:28.769Z,6.04
2018-03-09T00:08:28.657Z,6.09
2018-03-09T00:09:28.642Z,6.04
2018-03-09T00:10:28.635Z,6.03
2018-03-09T00:11:28.629Z,6
2018-03-09T00:12:28.375Z,5.93
2018-03-09T00:13:28.607Z,5.83
2018-03-09T00:14:28.336Z,5.76
2018-03-09T00:15:28.577Z,5.71
2018-03-09T00:16:28.564Z,5.56
2018-03-09T00:17:28.556Z,5.58
2018-03-09T00:18:28.547Z,5.54
2018-03-09T00:19:28.537Z,5.45
2018-03-09T00:20:28.520Z,5.35
2018-03-09T00:21:28.512Z,5.27
2018-03-09T00:22:28.243Z,5.27
2018-03-09T00:23:28.484Z,5.15
2018-03-09T00:24:28.536Z,5.02
2018-03-09T00:25:28.462Z,4.94
2018-03-09T00:26:28.454Z,4.85
2018-03-09T00:27:28.438Z,4.67
2018-03-09T00:28:28.425Z,4.72
2018-03-09T00:29:28.156Z,4.66
2018-03-09T00:30:28.413Z,4.52
2018-03-09T00:31:28.131Z,4.51
2018-03-09T00:32:28.426Z,4.4
2018-03-09T00:33:28.366Z,4.29
2018-03-09T00:34:28.355Z,4.18
2018-03-09T00:35:28.346Z,4.2
2018-03-09T00:36:28.377Z,4.12
2018-03-09T00:37:28.320Z,4.15
2018-03-09T00:38:28.301Z,4.04
2018-03-09T00:39:28.288Z,4
2018-03-09T00:40:28.022Z,3.98
2018-03-09T00:41:28.263Z,4
2018-03-09T00:42:28.253Z,3.84
2018-03-09T00:43:27.985Z,3.78
2018-03-09T00:44:27.970Z,3.73
2018-03-09T00:45:28.226Z,3.68
2018-03-09T00:46:28.197Z,3.69
2018-03-09T00:47:28.192Z,3.61
2018-03-09T00:48:28.177Z,3.62
2018-03-09T00:49:28.164Z,3.6
2018-03-09T00:50:28.148Z,3.51
2018-03-09T00:51:28.143Z,3.48
2018-03-09T00:52:28.122Z,3.39
2018-03-09T00:53:28.111Z,3.42
2018-03-09T00:54:27.841Z,3.33
2018-03-09T00:55:28.091Z,3.36
2018-03-09T00:56:28.079Z,3.32
2018-03-09T00:57:28.066Z,3.32
2018-03-09T00:58:28.062Z,3.45
2018-03-09T00:59:28.032Z,3.24
2018-03-09T01:00:27.516Z,3.23
2018-03-09T01:01:28.006Z,3.29
2018-03-09T01:02:27.991Z,3.32
2018-03-09T01:03:27.979Z,3.32
2018-03-09T01:04:27.722Z,3.23
2018-03-09T01:05:27.967Z,3.23
2018-03-09T01:06:27.940Z,3.26
2018-03-09T01:07:27.926Z,3.23
2018-03-09T01:08:27.914Z,3.35
2018-03-09T01:09:27.919Z,3.31
2018-03-09T01:10:27.901Z,3.47
2018-03-09T01:11:27.915Z,3.35
2018-03-09T01:12:27.864Z,3.42
2018-03-09T01:13:27.846Z,3.48
2018-03-09T01:14:27.842Z,3.45
2018-03-09T01:15:27.820Z,3.45
2018-03-09T01:16:27.807Z,3.55
2018-03-09T01:17:27.792Z,3.54
2018-03-09T01:18:27.778Z,3.52
2018-03-09T01:19:27.797Z,3.5
2018-03-09T01:20:27.753Z,3.61
2018-03-09T01:21:27.741Z,3.65
2018-03-09T01:22:27.725Z,3.6
2018-03-09T01:23:27.714Z,3.62
2018-03-09T01:25:27.696Z,3.65
2018-03-09T01:26:27.414Z,3.6
2018-03-09T01:27:27.663Z,3.66
2018-03-09T01:28:27.665Z,3.72
2018-03-09T01:29:27.628Z,3.7
2018-03-09T01:30:27.362Z,3.69
2018-03-09T01:31:27.609Z,3.66
2018-03-09T01:32:27.597Z,3.66
2018-03-09T01:33:27.580Z,3.65
2018-03-09T01:34:27.581Z,3.72
2018-03-09T01:35:27.563Z,3.75
2018-03-09T01:36:27.535Z,3.73
2018-03-09T01:37:27.521Z,3.83
2018-03-09T01:38:27.518Z,3.78
2018-03-09T01:39:27.522Z,3.76
2018-03-09T01:40:27.483Z,3.79
2018-03-09T01:41:27.474Z,3.72
2018-03-09T01:42:27.455Z,3.72
2018-03-09T01:43:27.447Z,3.75
2018-03-09T01:44:27.507Z,3.84
2018-03-09T01:45:27.420Z,3.93
2018-03-09T01:46:27.409Z,3.98
2018-03-09T01:47:27.394Z,3.91
2018-03-09T01:48:27.382Z,4
2018-03-09T01:49:27.110Z,4.04
2018-03-09T01:50:27.356Z,4.09
2018-03-09T01:51:27.339Z,4.12
2018-03-09T01:52:27.329Z,4.12
2018-03-09T01:53:27.309Z,4.2
2018-03-09T01:54:27.061Z,4.27
2018-03-09T01:55:27.290Z,4.33
2018-03-09T01:56:27.277Z,4.33
2018-03-09T01:57:27.376Z,4.4
2018-03-09T01:58:26.994Z,4.36
2018-03-09T01:59:26.982Z,4.45
2018-03-09T02:00:26.975Z,4.51
2018-03-09T02:01:27.213Z,4.48
2018-03-09T02:02:27.192Z,4.48
2018-03-09T02:03:27.179Z,4.51
2018-03-09T02:04:26.912Z,4.5
2018-03-09T02:05:27.154Z,4.45
2018-03-09T02:06:27.141Z,4.42
2018-03-09T02:07:27.132Z,4.41
2018-03-09T02:08:27.117Z,4.36
2018-03-09T02:09:26.593Z,4.34
2018-03-09T02:10:27.091Z,4.22
2018-03-09T02:11:26.571Z,4.23
2018-03-09T02:12:26.558Z,4.18
2018-03-09T02:13:27.051Z,4.18
2018-03-09T02:14:26.797Z,4.16
2018-03-09T02:15:26.776Z,4.12
2018-03-09T02:16:26.763Z,4.16
2018-03-09T02:17:27.001Z,4.05
2018-03-09T02:18:26.484Z,4.06
2018-03-09T02:19:26.726Z,4.11
2018-03-09T02:20:26.710Z,4.14
2018-03-09T02:21:26.700Z,4.11
2018-03-09T02:22:26.943Z,4.12
2018-03-09T02:23:26.927Z,4.08
2018-03-09T02:24:26.710Z,4.11
2018-03-09T02:25:26.901Z,4.12
2018-03-09T02:26:26.889Z,4.16
2018-03-09T02:27:26.877Z,4.15
2018-03-09T02:28:26.913Z,4.09
2018-03-09T02:29:26.591Z,4.18
2018-03-09T02:30:26.601Z,4.22
2018-03-09T02:31:26.575Z,4.22
2018-03-09T02:32:26.815Z,4.24
2018-03-09T02:33:26.540Z,4.15
2018-03-09T02:34:26.545Z,4.26
2018-03-09T02:35:26.525Z,4.26
2018-03-09T02:36:26.764Z,4.27
2018-03-09T02:37:26.493Z,4.27
2018-03-09T02:38:26.744Z,4.27
2018-03-09T02:39:26.727Z,4.29
2018-03-09T02:40:26.454Z,4.27
2018-03-09T02:41:26.697Z,4.32
2018-03-09T02:42:26.686Z,4.27
2018-03-09T02:43:26.673Z,4.32
2018-03-09T02:44:26.399Z,4.29
2018-03-09T02:45:26.653Z,4.32
2018-03-09T02:46:26.379Z,4.3
2018-03-09T02:47:26.365Z,4.26
2018-03-09T02:48:26.623Z,4.26
2018-03-09T02:49:26.598Z,4.26
2018-03-09T02:50:26.580Z,4.33
2018-03-09T02:51:26.311Z,4.23
2018-03-09T02:52:26.301Z,4.27
2018-03-09T02:53:26.557Z,4.23
2018-03-09T02:54:26.276Z,4.24
2018-03-09T02:55:26.516Z,4.18
2018-03-09T02:56:26.252Z,4.18
2018-03-09T02:57:26.489Z,4.15
2018-03-09T02:58:26.474Z,4.12
2018-03-09T02:59:26.213Z,4.15
2018-03-09T03:00:26.452Z,4.15
2018-03-09T03:01:26.436Z,4.04
2018-03-09T03:02:26.441Z,4
2018-03-09T03:03:26.415Z,3.91
2018-03-09T03:04:26.425Z,3.91
2018-03-09T03:05:26.384Z,3.93
2018-03-09T03:06:26.119Z,3.88
2018-03-09T03:07:26.104Z,3.76
2018-03-09T03:08:26.345Z,3.68
2018-03-09T03:09:26.081Z,3.7
2018-03-09T03:10:26.320Z,3.61
2018-03-09T03:11:26.322Z,3.57
2018-03-09T03:12:26.296Z,3.62
2018-03-09T03:13:26.285Z,3.55
2018-03-09T03:14:26.013Z,3.61
2018-03-09T03:15:26.257Z,3.54
2018-03-09T03:16:26.243Z,3.51
2018-03-09T03:17:26.228Z,3.5
2018-03-09T03:18:26.218Z,3.39
2018-03-09T03:19:25.952Z,3.45
2018-03-09T03:20:26.251Z,3.35
2018-03-09T03:21:26.185Z,3.33
2018-03-09T03:22:26.188Z,3.24
2018-03-09T03:23:26.149Z,3.26
2018-03-09T03:24:26.136Z,3.31
2018-03-09T03:25:26.122Z,3.23
2018-03-09T03:26:26.111Z,3.28
2018-03-09T03:27:25.837Z,3.32
2018-03-09T03:28:26.082Z,3.24
2018-03-09T03:29:26.069Z,3.24
2018-03-09T03:30:26.069Z,3.24
2018-03-09T03:31:25.808Z,3.18
2018-03-09T03:32:26.029Z,3.28
2018-03-09T03:33:26.021Z,3.17
2018-03-09T03:34:26.004Z,3.06
2018-03-09T03:35:25.990Z,3.14
2018-03-09T03:36:25.976Z,3.18
2018-03-09T03:37:25.966Z,3.11
2018-03-09T03:38:26.073Z,3.13
2018-03-09T03:39:25.931Z,3.11
2018-03-09T03:40:25.923Z,3.05
2018-03-09T03:41:25.672Z,3.05
2018-03-09T03:42:25.890Z,2.99
2018-03-09T03:43:25.875Z,3.05
2018-03-09T03:44:25.609Z,3.05
2018-03-09T03:45:25.851Z,3.03
2018-03-09T03:46:25.836Z,2.99
2018-03-09T03:47:25.818Z,2.96
2018-03-09T03:48:25.818Z,2.89
2018-03-09T03:49:25.540Z,2.93
2018-03-09T03:50:25.528Z,2.85
2018-03-09T03:51:25.767Z,2.84
2018-03-09T03:52:25.806Z,2.9
2018-03-09T03:53:25.744Z,2.97
2018-03-09T03:54:25.723Z,2.82
2018-03-09T03:55:25.711Z,2.84
2018-03-09T03:56:25.702Z,2.84
2018-03-09T03:57:25.682Z,2.82
2018-03-09T03:58:25.671Z,2.78
2018-03-09T03:59:25.666Z,2.85
2018-03-09T04:00:25.651Z,2.79
2018-03-09T04:01:25.636Z,2.82
2018-03-09T04:02:25.623Z,2.78
2018-03-09T04:03:25.604Z,2.82
2018-03-09T04:04:25.608Z,2.74
2018-03-09T04:05:25.573Z,2.87
2018-03-09T04:06:25.305Z,2.85
2018-03-09T04:07:25.551Z,2.78
2018-03-09T04:08:25.535Z,2.89
2018-03-09T04:09:25.265Z,2.82
2018-03-09T04:10:25.510Z,2.77
2018-03-09T04:11:25.489Z,2.87
2018-03-09T04:12:25.477Z,2.89
2018-03-09T04:13:25.214Z,2.89
2018-03-09T04:14:25.447Z,2.89
2018-03-09T04:15:25.434Z,2.87
2018-03-09T04:16:25.428Z,2.99
2018-03-09T04:17:25.154Z,2.85
2018-03-09T04:18:25.396Z,2.9
2018-03-09T04:19:25.137Z,2.89
2018-03-09T04:20:25.369Z,2.95
2018-03-09T04:21:25.353Z,2.9
2018-03-09T04:22:25.337Z,2.92
2018-03-09T04:23:25.320Z,2.96
2018-03-09T04:24:25.314Z,3.08
2018-03-09T04:25:25.302Z,3.15
2018-03-09T04:26:25.281Z,3.11
2018-03-09T04:27:25.266Z,3.18
2018-03-09T04:28:25.254Z,3.23
2018-03-09T04:29:25.240Z,3.23
2018-03-09T04:30:25.226Z,3.35
2018-03-09T04:31:25.214Z,3.32
2018-03-09T04:32:25.200Z,3.28
2018-03-09T04:33:25.186Z,3.29
2018-03-09T04:34:25.234Z,3.47
2018-03-09T04:35:25.155Z,3.32
2018-03-09T04:36:25.143Z,3.29
2018-03-09T04:37:25.126Z,3.36
2018-03-09T04:38:25.117Z,3.39
2018-03-09T04:39:25.102Z,3.42
2018-03-09T04:40:25.090Z,3.45
2018-03-09T04:41:24.818Z,3.52
2018-03-09T04:42:25.057Z,3.68
2018-03-09T04:43:25.049Z,3.68
2018-03-09T04:44:25.050Z,3.73
2018-03-09T04:45:24.770Z,3.78
2018-03-09T04:46:25.010Z,3.96
2018-03-09T04:47:24.998Z,3.97
2018-03-09T04:48:24.979Z,3.97
2018-03-09T04:49:24.965Z,3.97
2018-03-09T04:50:24.949Z,3.97
2018-03-09T04:51:24.941Z,4.02
2018-03-09T04:52:24.678Z,4.14
2018-03-09T04:53:24.917Z,4.11
2018-03-09T04:54:24.644Z,4.14
2018-03-09T04:55:24.890Z,4.2
2018-03-09T04:56:24.870Z,4.29
2018-03-09T04:57:24.855Z,4.3
2018-03-09T04:58:24.591Z,4.33
2018-03-09T04:59:24.836Z,4.44
2018-03-09T05:00:24.826Z,4.33
2018-03-09T05:01:24.808Z,4.47
2018-03-09T05:02:24.796Z,4.5
2018-03-09T05:03:24.524Z,4.58
2018-03-09T05:04:24.769Z,4.47
2018-03-09T05:05:24.753Z,4.65
2018-03-09T05:06:24.486Z,4.55
2018-03-09T05:07:24.735Z,4.66
2018-03-09T05:08:24.728Z,4.6
2018-03-09T05:09:24.714Z,4.7
2018-03-09T05:10:24.791Z,4.73
2018-03-09T05:11:24.682Z,4.86
2018-03-09T05:12:24.665Z,4.78
2018-03-09T05:13:24.661Z,4.85
2018-03-09T05:14:24.644Z,4.82
2018-03-09T05:15:24.629Z,4.72
2018-03-09T05:16:24.360Z,4.69
2018-03-09T05:17:24.598Z,4.84
2018-03-09T05:18:24.589Z,4.72
2018-03-09T05:19:24.593Z,4.75
2018-03-09T05:20:24.565Z,4.75
2018-03-09T05:21:24.555Z,4.65
2018-03-09T05:22:24.537Z,4.65
2018-03-09T05:23:24.536Z,4.72
2018-03-09T05:24:24.512Z,4.72
2018-03-09T05:25:24.503Z,4.78
2018-03-09T05:26:24.488Z,4.67
2018-03-09T05:27:24.474Z,4.73
2018-03-09T05:28:24.460Z,4.8
2018-03-09T05:29:24.463Z,4.84
2018-03-09T05:30:24.435Z,4.89
2018-03-09T05:31:24.425Z,4.96
2018-03-09T05:32:24.157Z,4.92
2018-03-09T05:33:24.403Z,5.06
2018-03-09T05:34:24.387Z,5.06
2018-03-09T05:35:24.121Z,5.1
2018-03-09T05:36:24.453Z,5.09
2018-03-09T05:37:24.353Z,5.17
2018-03-09T05:38:24.344Z,5.13
2018-03-09T05:39:24.324Z,5.12
2018-03-09T05:40:24.320Z,5.13
2018-03-09T05:41:24.044Z,5.18
2018-03-09T05:42:24.296Z,5.25
2018-03-09T05:43:24.286Z,5.27
2018-03-09T05:44:24.012Z,5.24
2018-03-09T05:45:24.251Z,5.27
2018-03-09T05:46:24.258Z,5.28
2018-03-09T05:47:24.222Z,5.24
2018-03-09T05:48:24.221Z,5.31
2018-03-09T05:49:23.954Z,5.28
2018-03-09T05:50:24.191Z,5.31
2018-03-09T05:51:24.177Z,5.36
2018-03-09T05:52:24.166Z,5.35
2018-03-09T05:53:24.151Z,5.42
2018-03-09T05:54:24.142Z,5.43
2018-03-09T05:55:24.141Z,5.42
2018-03-09T05:56:24.117Z,5.51
2018-03-09T05:57:24.111Z,5.51
2018-03-09T05:58:24.092Z,5.56
2018-03-09T05:59:24.080Z,5.63
2018-03-09T06:00:24.080Z,5.58
2018-03-09T06:01:24.056Z,5.57
2018-03-09T06:02:24.042Z,5.54
2018-03-09T06:03:24.033Z,5.56
2018-03-09T06:04:24.022Z,5.56
2018-03-09T06:05:24.005Z,5.53
2018-03-09T06:06:23.997Z,5.64
2018-03-09T06:07:23.980Z,5.58
2018-03-09T06:08:23.969Z,5.6
2018-03-09T06:09:23.964Z,5.51
2018-03-09T06:10:23.945Z,5.48
2018-03-09T06:11:23.931Z,5.45
2018-03-09T06:12:23.928Z,5.45
2018-03-09T06:13:23.904Z,5.46
2018-03-09T06:14:23.892Z,5.6
2018-03-09T06:15:23.886Z,5.6
2018-03-09T06:16:23.876Z,5.6
2018-03-09T06:17:23.865Z,5.64
2018-03-09T06:18:23.850Z,5.81
2018-03-09T06:19:23.581Z,5.76
2018-03-09T06:20:23.823Z,5.97
2018-03-09T06:21:23.815Z,5.97
2018-03-09T06:22:23.804Z,5.96
2018-03-09T06:23:23.785Z,6.06
2018-03-09T06:24:23.788Z,5.99
2018-03-09T06:25:23.772Z,6.08
2018-03-09T06:26:23.500Z,6.08
2018-03-09T06:27:23.740Z,6.15
2018-03-09T06:28:23.505Z,6.19
2018-03-09T06:29:23.723Z,6.27
2018-03-09T06:30:23.453Z,6.15
2018-03-09T06:31:23.699Z,6.22
2018-03-09T06:32:23.692Z,6.19
2018-03-09T06:33:23.809Z,6.08
2018-03-09T06:34:23.667Z,6.14
2018-03-09T06:35:23.398Z,6.17
2018-03-09T06:36:23.385Z,6.17
2018-03-09T06:37:23.642Z,6.22
2018-03-09T06:38:23.635Z,6.3
2018-03-09T06:39:23.610Z,6.3
2018-03-09T06:40:23.596Z,6.3
2018-03-09T06:41:23.327Z,6.25
2018-03-09T06:42:23.572Z,6.4
2018-03-09T06:43:23.561Z,6.34
2018-03-09T06:44:23.561Z,6.17
2018-03-09T06:45:23.283Z,6.22
2018-03-09T06:46:23.532Z,6.36
2018-03-09T06:47:23.521Z,6.28
2018-03-09T06:48:23.515Z,6.51
2018-03-09T06:49:23.493Z,6.48
2018-03-09T06:50:23.230Z,6.61
2018-03-09T06:51:23.477Z,6.79
2018-03-09T06:52:23.637Z,6.94
2018-03-09T06:53:23.452Z,7.09
2018-03-09T06:54:23.443Z,7.24
2018-03-09T06:55:23.449Z,7.27
2018-03-09T06:56:23.428Z,7.32
2018-03-09T06:57:23.416Z,7.37
2018-03-09T06:58:23.409Z,7.43
2018-03-09T06:59:23.397Z,7.53
2018-03-09T07:00:23.128Z,7.57
2018-03-09T07:01:23.120Z,7.69
2018-03-09T07:02:23.364Z,7.82
2018-03-09T07:03:23.104Z,7.8
2018-03-09T07:04:23.366Z,7.79
2018-03-09T07:05:23.337Z,7.74
2018-03-09T07:06:23.329Z,7.63
2018-03-09T07:07:23.325Z,7.72
2018-03-09T07:08:23.324Z,7.79
2018-03-09T07:09:23.047Z,7.9
2018-03-09T07:10:23.292Z,8.04
2018-03-09T07:11:23.288Z,8.02
2018-03-09T07:12:23.279Z,8.11
2018-03-09T07:13:23.012Z,8.12
2018-03-09T07:14:23.266Z,8.12
2018-03-09T07:15:23.275Z,8.25
2018-03-09T07:16:23.240Z,8.22
2018-03-09T07:17:23.235Z,8.3
2018-03-09T07:18:22.972Z,8.43
2018-03-09T07:19:23.215Z,8.47
2018-03-09T07:20:23.211Z,8.37
2018-03-09T07:21:23.198Z,8.45
2018-03-09T07:22:23.196Z,8.59
2018-03-09T07:23:23.195Z,8.7
2018-03-09T07:24:23.194Z,8.71
2018-03-09T07:25:23.167Z,8.79
2018-03-09T07:26:23.174Z,8.87
2018-03-09T07:27:22.909Z,9.02
2018-03-09T07:28:23.168Z,9.13
2018-03-09T07:29:23.144Z,9.2
2018-03-09T07:30:23.143Z,9.33
2018-03-09T07:31:23.133Z,9.35
2018-03-09T07:32:23.121Z,9.46
2018-03-09T07:33:22.859Z,9.53
2018-03-09T07:34:23.121Z,9.66
2018-03-09T07:35:22.851Z,9.81
2018-03-09T07:36:22.847Z,9.94
2018-03-09T07:37:23.094Z,10.09
2018-03-09T07:38:23.087Z,10.17
2018-03-09T07:39:23.086Z,10.3
2018-03-09T07:40:23.082Z,10.32
2018-03-09T07:41:23.076Z,10.4
2018-03-09T07:42:23.066Z,10.42
2018-03-09T07:43:23.063Z,10.55
2018-03-09T07:44:23.073Z,10.59
2018-03-09T07:45:23.062Z,10.67
2018-03-09T07:46:23.053Z,10.7
2018-03-09T07:47:23.046Z,10.89
2018-03-09T07:48:23.038Z,11.09
2018-03-09T07:49:22.778Z,11.11
2018-03-09T07:50:23.027Z,11.19
2018-03-09T07:51:23.029Z,11.09
2018-03-09T07:52:22.768Z,11.11
2018-03-09T07:53:22.766Z,11.06
2018-03-09T07:54:23.040Z,11.06
2018-03-09T07:55:23.015Z,11.15
2018-03-09T07:56:23.010Z,11.15
2018-03-09T07:57:23.009Z,11.15
2018-03-09T07:58:22.739Z,11.09
2018-03-09T07:59:22.995Z,11.24
2018-03-09T08:00:23.008Z,11.21
2018-03-09T08:01:23.011Z,11.28
2018-03-09T08:02:22.983Z,11.36
2018-03-09T08:03:23.016Z,11.51
2018-03-09T08:04:22.974Z,11.51
2018-03-09T08:05:22.971Z,11.49
2018-03-09T08:06:22.975Z,11.55
2018-03-09T08:07:22.994Z,11.54
2018-03-09T08:08:22.957Z,11.4
2018-03-09T08:09:22.964Z,11.35
2018-03-09T08:10:22.963Z,11.25
2018-03-09T08:11:22.953Z,11.24
2018-03-09T08:12:22.952Z,11.07
2018-03-09T08:13:22.944Z,10.89
2018-03-09T08:14:22.667Z,10.99
2018-03-09T08:15:22.920Z,10.99
2018-03-09T08:16:23.069Z,10.89
2018-03-09T08:17:22.650Z,10.81
2018-03-09T08:18:22.711Z,10.7
2018-03-09T08:19:22.890Z,10.68
2018-03-09T08:20:22.633Z,10.61
2018-03-09T08:21:23.287Z,10.66
2018-03-09T08:22:22.622Z,10.51
2018-03-09T08:23:22.616Z,10.3
2018-03-09T08:24:22.613Z,10.33
2018-03-09T08:25:22.858Z,10.22
2018-03-09T08:26:22.848Z,10.12
2018-03-09T08:27:22.844Z,10.11
2018-03-09T08:28:22.835Z,10.05
2018-03-09T08:29:22.572Z,9.96
2018-03-09T08:30:22.930Z,9.96
2018-03-09T08:31:22.812Z,9.86
2018-03-09T08:32:22.806Z,9.87
2018-03-09T08:33:22.798Z,9.84
2018-03-09T08:34:22.787Z,9.84
2018-03-09T08:35:22.803Z,9.94
2018-03-09T08:36:22.788Z,10.01
2018-03-09T08:37:22.774Z,10.12
2018-03-09T08:38:22.501Z,10.09
2018-03-09T08:39:22.762Z,10.08
2018-03-09T08:40:22.495Z,10.11
2018-03-09T08:41:22.738Z,10.23
2018-03-09T08:42:22.485Z,10.23
2018-03-09T08:43:22.736Z,10.29
2018-03-09T08:44:22.719Z,10.41
2018-03-09T08:45:22.460Z,10.36
2018-03-09T08:46:22.703Z,10.38
2018-03-09T08:47:22.691Z,10.4
2018-03-09T08:48:22.686Z,10.42
2018-03-09T08:49:22.440Z,10.47
2018-03-09T08:50:22.677Z,10.47
2018-03-09T08:51:22.668Z,10.44
2018-03-09T08:52:22.662Z,10.47
2018-03-09T08:53:22.389Z,10.41
2018-03-09T08:54:22.387Z,10.4
2018-03-09T08:55:22.645Z,10.53
2018-03-09T08:56:22.369Z,10.6
2018-03-09T08:57:22.628Z,10.6
2018-03-09T08:58:22.375Z,10.56
2018-03-09T08:59:22.605Z,10.53
2018-03-09T09:00:22.342Z,10.51
2018-03-09T09:01:22.599Z,10.61
2018-03-09T09:02:22.577Z,10.55
2018-03-09T09:03:22.619Z,10.56
2018-03-09T09:04:22.306Z,10.61
2018-03-09T09:05:22.579Z,10.64
2018-03-09T09:06:22.563Z,10.71
2018-03-09T09:07:22.588Z,10.82
2018-03-09T09:08:22.541Z,10.88
2018-03-09T09:09:22.539Z,11.04
2018-03-09T09:10:22.549Z,11.09
2018-03-09T09:11:22.521Z,11.25
2018-03-09T09:12:22.519Z,11.25
2018-03-09T09:13:22.615Z,11.18
2018-03-09T09:14:22.497Z,11.19
2018-03-09T09:15:22.490Z,11.21
2018-03-09T09:16:22.483Z,11.24
2018-03-09T09:17:22.472Z,11.27
2018-03-09T09:18:22.468Z,11.24
2018-03-09T09:19:22.481Z,11.33
2018-03-09T09:20:22.466Z,11.22
2018-03-09T09:21:22.465Z,11.29
2018-03-09T09:22:22.445Z,11.25
2018-03-09T09:23:22.438Z,11.35
2018-03-09T09:24:22.173Z,11.27
2018-03-09T09:25:22.170Z,11.43
2018-03-09T09:26:22.433Z,11.49
2018-03-09T09:27:22.460Z,11.54
2018-03-09T09:28:22.417Z,11.61
2018-03-09T09:29:22.536Z,11.64
2018-03-09T09:30:22.133Z,11.58
2018-03-09T09:31:22.402Z,11.65
2018-03-09T09:32:22.148Z,11.67
2018-03-09T09:33:22.392Z,11.78
2018-03-09T09:34:22.371Z,11.8
2018-03-09T09:35:22.368Z,11.79
2018-03-09T09:36:22.365Z,11.85
2018-03-09T09:37:22.353Z,11.65
2018-03-09T09:38:22.346Z,11.67
2018-03-09T09:39:22.341Z,11.7
2018-03-09T09:40:22.338Z,11.83
2018-03-09T09:41:22.323Z,11.82
2018-03-09T09:42:21.805Z,11.95
2018-03-09T09:43:22.310Z,11.98
2018-03-09T09:44:22.304Z,11.99
2018-03-09T09:45:22.318Z,11.98
2018-03-09T09:46:22.041Z,11.95
2018-03-09T09:47:22.292Z,11.96
2018-03-09T09:48:22.276Z,11.96
2018-03-09T09:49:22.023Z,12.01
2018-03-09T09:50:22.269Z,12.04
2018-03-09T09:51:22.279Z,12.05
2018-03-09T09:52:22.299Z,12.12
2018-03-09T09:53:22.085Z,12.2
2018-03-09T09:54:22.292Z,12.23
2018-03-09T09:55:22.251Z,12.16
2018-03-09T09:56:22.247Z,12.17
2018-03-09T09:57:22.247Z,12.05
2018-03-09T09:58:21.996Z,12.1
2018-03-09T09:59:22.240Z,12.12
2018-03-09T10:00:22.285Z,12.14
2018-03-09T10:01:21.986Z,12.07
2018-03-09T10:02:21.971Z,12.14
2018-03-09T10:03:21.969Z,12.13
2018-03-09T10:04:22.222Z,12.12
2018-03-09T10:05:22.184Z,12.1
2018-03-09T10:06:22.179Z,12.28
2018-03-09T10:07:22.227Z,12.21
2018-03-09T10:08:22.201Z,12.49
2018-03-09T10:09:22.157Z,12.49
2018-03-09T10:10:22.159Z,12.45
2018-03-09T10:11:22.140Z,12.46
2018-03-09T10:12:22.146Z,12.45
2018-03-09T10:13:22.146Z,12.46
2018-03-09T10:14:22.128Z,12.5
2018-03-09T10:15:22.132Z,12.53
2018-03-09T10:16:22.245Z,12.62
2018-03-09T10:17:21.854Z,12.71
2018-03-09T10:18:21.920Z,12.78
2018-03-09T10:19:22.105Z,12.85
2018-03-09T10:20:22.092Z,12.85
2018-03-09T10:21:22.092Z,12.96
2018-03-09T10:22:22.083Z,12.95
2018-03-09T10:23:22.081Z,13
2018-03-09T10:24:22.088Z,12.97
2018-03-09T10:25:22.098Z,13.01
2018-03-09T10:26:22.064Z,12.97
2018-03-09T10:27:22.062Z,12.97
2018-03-09T10:28:22.060Z,13.01
2018-03-09T10:29:22.048Z,13.01
2018-03-09T10:30:22.039Z,13
2018-03-09T10:31:21.778Z,13.04
2018-03-09T10:32:22.066Z,13.12
2018-03-09T10:33:22.043Z,13.1
2018-03-09T10:34:22.046Z,13.14
2018-03-09T10:35:22.030Z,13.29
2018-03-09T10:36:22.031Z,13.22
2018-03-09T10:37:22.017Z,13.26
2018-03-09T10:38:22.016Z,13.33
2018-03-09T10:39:21.991Z,13.3
2018-03-09T10:40:22.043Z,13.2
2018-03-09T10:41:22.006Z,13.07
2018-03-09T10:42:21.755Z,13
2018-03-09T10:43:21.968Z,12.82
2018-03-09T10:44:21.992Z,12.75
2018-03-09T10:45:21.996Z,12.68
2018-03-09T10:46:22.057Z,12.67
2018-03-09T10:47:21.954Z,12.68
2018-03-09T10:48:21.974Z,12.6
2018-03-09T10:49:21.689Z,12.64
2018-03-09T10:50:22.235Z,12.64
2018-03-09T10:51:21.944Z,12.65
2018-03-09T10:52:22.135Z,12.74
2018-03-09T10:53:21.948Z,12.72
2018-03-09T10:54:21.909Z,12.9
2018-03-09T10:55:21.908Z,13
2018-03-09T10:56:21.919Z,12.97
2018-03-09T10:57:21.894Z,13.11
2018-03-09T10:58:21.648Z,13.11
2018-03-09T10:59:21.885Z,13.26
2018-03-09T11:00:21.837Z,13.28
2018-03-09T11:01:21.635Z,13.42
2018-03-09T11:02:21.917Z,13.39
2018-03-09T11:03:21.864Z,13.54
2018-03-09T11:04:21.989Z,13.57
2018-03-09T11:05:21.854Z,13.62
2018-03-09T11:06:21.849Z,13.66
2018-03-09T11:07:21.849Z,13.7
2018-03-09T11:08:21.841Z,13.7
2018-03-09T11:09:21.828Z,13.64
2018-03-09T11:10:21.843Z,13.57
2018-03-09T11:11:21.562Z,13.57
2018-03-09T11:12:21.812Z,13.51
2018-03-09T11:13:21.844Z,13.45
2018-03-09T11:14:21.558Z,13.41
2018-03-09T11:15:21.802Z,13.3
2018-03-09T11:16:21.813Z,13.25
2018-03-09T11:17:21.562Z,13.25
2018-03-09T11:18:21.814Z,13.23
2018-03-09T11:19:21.780Z,13.17
2018-03-09T11:20:21.779Z,13.23
2018-03-09T11:21:21.785Z,13.28
2018-03-09T11:22:21.763Z,13.28
2018-03-09T11:23:21.772Z,13.38
2018-03-09T11:24:21.759Z,13.39
2018-03-09T11:25:21.753Z,13.63
2018-03-09T11:26:21.767Z,13.7
2018-03-09T11:27:21.741Z,13.75
2018-03-09T11:28:21.493Z,13.77
2018-03-09T11:29:21.728Z,13.7
2018-03-09T11:30:21.737Z,13.7
2018-03-09T11:31:21.732Z,13.7
2018-03-09T11:32:21.792Z,13.7
2018-03-09T11:33:21.727Z,13.73
2018-03-09T11:34:21.481Z,13.7
2018-03-09T11:35:21.698Z,13.73
2018-03-09T11:36:21.463Z,13.67
2018-03-09T11:37:21.446Z,13.73
2018-03-09T11:38:21.707Z,13.78
2018-03-09T11:39:21.687Z,13.73
2018-03-09T11:40:21.684Z,13.75
2018-03-09T11:41:21.705Z,13.81
2018-03-09T11:42:21.671Z,13.77
2018-03-09T11:43:21.710Z,13.78
2018-03-09T11:44:21.678Z,13.88
2018-03-09T11:45:21.651Z,13.91
2018-03-09T11:46:21.663Z,14.07
2018-03-09T11:47:21.678Z,14.07
2018-03-09T11:48:21.652Z,14.1
2018-03-09T11:49:21.416Z,14.04
2018-03-09T11:50:21.760Z,14.06
2018-03-09T11:51:21.632Z,14.04
2018-03-09T11:52:21.668Z,13.96
2018-03-09T11:53:21.617Z,13.99
2018-03-09T11:54:21.618Z,13.97
2018-03-09T11:55:21.626Z,13.88
2018-03-09T11:56:21.352Z,14.03
2018-03-09T11:57:21.610Z,13.89
2018-03-09T11:58:21.604Z,13.79
2018-03-09T11:59:21.589Z,13.78
2018-03-09T12:00:21.589Z,13.69
2018-03-09T12:01:21.576Z,13.75
2018-03-09T12:02:21.664Z,13.79
2018-03-09T12:03:21.587Z,13.81
2018-03-09T12:04:21.317Z,13.92
2018-03-09T12:05:21.746Z,13.95
2018-03-09T12:06:21.563Z,13.88
2018-03-09T12:07:21.568Z,14.06
2018-03-09T12:08:21.638Z,14.03
2018-03-09T12:09:21.543Z,14.1
2018-03-09T12:10:21.534Z,13.91
2018-03-09T12:11:21.529Z,13.77
2018-03-09T12:12:21.563Z,13.69
2018-03-09T12:13:21.523Z,13.69
2018-03-09T12:14:21.558Z,13.51
2018-03-09T12:15:21.518Z,13.38
2018-03-09T12:16:21.344Z,13.41
2018-03-09T12:17:21.515Z,13.22
2018-03-09T12:18:21.501Z,13.26
2018-03-09T12:19:21.499Z,13.3
2018-03-09T12:20:21.543Z,13.17
2018-03-09T12:21:21.502Z,13.04
2018-03-09T12:22:21.481Z,13.01
2018-03-09T12:23:21.499Z,12.86
2018-03-09T12:24:21.466Z,12.86
2018-03-09T12:25:21.464Z,12.77
2018-03-09T12:26:21.473Z,12.65
2018-03-09T12:27:21.470Z,12.65
2018-03-09T12:28:21.447Z,12.74
2018-03-09T12:29:21.188Z,12.62
2018-03-09T12:30:21.437Z,12.68
2018-03-09T12:31:21.176Z,12.71
2018-03-09T12:32:21.437Z,12.72
2018-03-09T12:33:21.412Z,12.71
2018-03-09T12:34:21.418Z,12.74
2018-03-09T12:35:21.408Z,12.7
2018-03-09T12:36:21.420Z,12.65
2018-03-09T12:37:21.397Z,12.59
2018-03-09T12:38:21.389Z,12.62
2018-03-09T12:39:21.390Z,12.62
2018-03-09T12:40:21.392Z,12.68
2018-03-09T12:41:21.374Z,12.68
2018-03-09T12:42:21.366Z,12.68
2018-03-09T12:43:21.365Z,12.74
2018-03-09T12:44:21.372Z,12.74
2018-03-09T12:45:21.349Z,12.74
2018-03-09T12:46:21.654Z,12.77
2018-03-09T12:47:21.089Z,12.83
2018-03-09T12:48:21.350Z,12.92
2018-03-09T12:49:21.072Z,12.95
2018-03-09T12:50:21.326Z,12.86
2018-03-09T12:51:21.071Z,12.75
2018-03-09T12:52:21.058Z,12.83
2018-03-09T12:53:21.050Z,12.75
2018-03-09T12:54:21.393Z,12.87
2018-03-09T12:55:21.287Z,12.86
2018-03-09T12:56:21.043Z,12.86
2018-03-09T12:57:21.020Z,12.86
2018-03-09T12:58:21.016Z,12.74
2018-03-09T12:59:21.270Z,12.67
2018-03-09T13:00:21.267Z,12.67
2018-03-09T13:01:21.263Z,12.7
2018-03-09T13:02:21.251Z,12.6
2018-03-09T13:03:20.989Z,12.56
2018-03-09T13:04:21.459Z,12.5
2018-03-09T13:05:21.367Z,12.45
2018-03-09T13:06:21.228Z,12.46
2018-03-09T13:07:20.990Z,12.47
2018-03-09T13:08:21.231Z,12.53
2018-03-09T13:09:21.205Z,12.54
2018-03-09T13:10:21.206Z,12.68
2018-03-09T13:11:21.193Z,12.77